Terminal Aerodrome Forecast
Issued by NWS

Home | Current Version | Previous Version | Text Only | Print | Product List | Glossary On
Versions: 1 2 3 4 5 6 7 8 9 10 11 12 13 14 15 16 17 18 19 20 21 22 23 24 25 26 27 28 29 30 31 32
000
FTAK31 PANC 172337
TAFAEN
TAF
PAEN 172337Z 1800/1824 22004KT P6SM -SHRA SCT015 BKN040
     FM180600 21004KT P6SM SCT008 BKN018
     FM181600 VRB04KT P6SM SCT025 BKN040=

USA.gov is the U.S. government's official web portal to all federal, state and local government web resources and services.